This is the latest recevied weather packets stored in our database for station/object HS5NMF. If no packets are shown the sender has not sent any weather packets the latest 10 day(s).
| Time | Temp. | Humidity | Pressure | Rain* | Wind** | Luminosity | Snow |
|---|---|---|---|---|---|---|---|
| 1777589930 | 26.67° C | 84% | 978 hPa | - | - | 0 W/m² | - |
| 1777589606 | 26.67° C | 84% | 978 hPa | - | - | 0 W/m² | - |
| 1777589285 | 26.67° C | 82% | 978 hPa | - | - | 0 W/m² | - |
| 1777588960 | 26.67° C | 83% | 978 hPa | - | - | 0 W/m² | - |
| 1777588634 | 26.67° C | 84% | 978 hPa | - | - | 0 W/m² | - |
| 1777588310 | 26.67° C | 83% | 978 hPa | - | - | 0 W/m² | - |
| 1777587986 | 27.22° C | 81% | 978 hPa | - | - | 0 W/m² | - |
| 1777587670 | 27.22° C | 82% | 978 hPa | - | - | 0 W/m² | - |
| 1777587661 | 27.22° C | 82% | 978 hPa | - | - | 0 W/m² | - |
| 1777587340 | 27.22° C | 82% | 978 hPa | - | - | 0 W/m² | - |
| 1777587015 | 27.22° C | 83% | 978 hPa | - | - | 0 W/m² | - |
| 1777586692 | 27.22° C | 82% | 978 hPa | - | - | 0 W/m² | - |
| 1777586369 | 27.22° C | 82% | 978 hPa | - | - | 0 W/m² | - |
| 1777586040 | 27.22° C | 83% | 978 hPa | - | - | 0 W/m² | - |
| 1777585718 | 26.11° C | 86% | 978 hPa | - | - | 0 W/m² | - |
| 1777585396 | 26.11° C | 87% | 978 hPa | - | - | 0 W/m² | - |
| 1777585071 | 26.67° C | 86% | 978 hPa | - | - | 0 W/m² | - |
| 1777584744 | 25.56° C | 91% | 978 hPa | - | - | 0 W/m² | - |
| 1777584423 | 26.67° C | 86% | 978 hPa | - | - | 0 W/m² | - |
| 1777584098 | 26.67° C | 86% | 978 hPa | - | - | 0 W/m² | - |
| 1777583776 | 26.11° C | 88% | 978 hPa | - | - | 0 W/m² | - |
| 1777583450 | 26.67° C | 85% | 978 hPa | - | - | 0 W/m² | - |
| 1777583127 | 26.67° C | 84% | 977 hPa | - | - | 0 W/m² | - |
| 1777582806 | 26.67° C | 85% | 977 hPa | - | - | 0 W/m² | - |
| 1777582479 | 26.67° C | 85% | 977 hPa | - | - | 0 W/m² | - |
* Rain since midnight (hover to see other rain measurements)
** Current wind speed in m/s (hover to see current wind gust speed)